Fairfax, Iowa
Current Conditions -  °F | °C
As of 2:52 PM on Thursday 20 Nov 2014 (Local Time) from KCID Reporting Station
Clear Clear  
Wind Chill: 10°   Ceiling: Unl
Heat Index: 24°   Visibility: 10mi
Dew Point: 12°   Wind: 18mph
Humidity: 60%   Direction: 290°WNW
Pressure: 30.18"   Gusts: 24mph
Location:  41.92°N, 91.78°W
Report Text: KCID 202052Z 29016G21KT 10SM CLR M04/M11 A3018 RMK AO2 SLP234 T10441111 53003
Loading
Personal Weather Stations






























Interactive Weather Map New forecast layout! Learn more

10-Day Weather Forecast

Advertisements
Track Severe Weather on mobile